Flight Track Log - Related Links

Times and Time Zones

All times are in EDT time to prevent confusion due to time zone crossing. See the DLH1927 flight status page for this flight to view local times or setup timezone preferences in your user account.

Time Position Orientation Groundspeed Altitude Reporting Facility
EDT Latitude Longitude Course Direction KTS MPH feet Rate Location/Type
Fri 06:18:32 AM 41.0137 14.2531 347° North  Level Estimated
Fri 06:19:32 AM 41.0969 14.2284 347° North  Level Estimated
Fri 06:20:32 AM 41.1802 14.2037 347° North  Level Estimated
Fri 06:21:32 AM 41.2634 14.1789 347° North  Level Estimated
Fri 06:22:32 AM 41.3466 14.1541 347° North  Level Estimated
Fri 06:23:32 AM 41.4299 14.1292 347° North  Level Estimated
Fri 06:24:32 AM 41.5131 14.1042 347° North  Level Estimated
Fri 06:25:32 AM 41.5963 14.0792 347° North  Level Estimated
Fri 06:26:32 AM 41.6795 14.0541 347° North  Level Estimated
Fri 06:27:32 AM 41.7627 14.0289 347° North  Level Estimated
Fri 06:28:32 AM 41.8459 14.0037 347° North  Level Estimated
Fri 06:29:32 AM 41.9291 13.9784 347° North  Level Estimated
Fri 06:30:32 AM 42.0123 13.9530 347° North  Level Estimated
Fri 06:31:32 AM 42.0955 13.9276 347° North  Level Estimated
Fri 06:32:32 AM 42.1787 13.9021 347° North  Level Estimated
Fri 06:33:32 AM 42.2619 13.8765 347° North  Level Estimated
Fri 06:34:32 AM 42.3450 13.8509 347° North  Level Estimated
Fri 06:35:32 AM 42.4386 13.8220 347° North  Level Estimated
Fri 06:36:32 AM 42.5321 13.7930 347° North  Level Estimated
Fri 06:37:32 AM 42.6257 13.7639 347° North  Level Estimated
Fri 06:38:32 AM 42.7192 13.7347 347° North  Level Estimated
Fri 06:39:32 AM 42.8127 13.7054 347° North  Level Estimated
Fri 06:40:32 AM 42.9063 13.6761 347° North  Level Estimated
Fri 06:41:32 AM 42.9998 13.6467 347° North  Level Estimated
Fri 06:42:32 AM 43.0933 13.6171 347° North  Level Estimated
Fri 06:43:32 AM 43.1868 13.5875 347° North  Level Estimated
Fri 06:44:32 AM 43.2803 13.5578 347° North  Level Estimated
Fri 06:45:32 AM 43.3737 13.5280 347° North  Level Estimated
Fri 06:46:32 AM 43.4672 13.4981 347° North  Level Estimated
Fri 06:47:32 AM 43.5607 13.4681 347° North  Level Estimated
Fri 06:48:32 AM 43.6541 13.4380 347° North  Level Estimated
Fri 06:49:32 AM 43.7476 13.4078 347° North  Level Estimated
Fri 06:50:32 AM 43.8410 13.3776 347° North  Level Estimated
Fri 06:51:32 AM 43.9345 13.3472 347° North  Level Estimated
Fri 06:52:32 AM 44.0279 13.3167 347° North  Level Estimated
Fri 06:53:32 AM 44.1213 13.2862 347° North  Level Estimated
Fri 06:54:32 AM 44.2147 13.2555 347° North  Level Estimated
Fri 06:55:32 AM 44.3081 13.2248 347° North  Level Estimated
Fri 06:56:32 AM 44.4015 13.1939 347° North  Level Estimated
Fri 06:57:32 AM 44.4949 13.1630 347° North  Level Estimated
Fri 06:58:32 AM 44.5883 13.1319 347° North  Level Estimated
Fri 06:59:32 AM 44.6816 13.1008 347° North  Level Estimated
Fri 07:00:32 AM 44.7750 13.0695 347° North  Level Estimated
Fri 07:01:32 AM 44.8684 13.0382 347° North  Level Estimated
Fri 07:02:32 AM 44.9617 13.0067 347° North  Level Estimated
Fri 07:03:32 AM 45.0550 12.9752 347° North  Level Estimated
Fri 07:04:32 AM 45.1484 12.9435 347° North  Level Estimated
Fri 07:05:32 AM 45.2417 12.9117 346° North  Level Estimated
Fri 07:06:32 AM 45.3350 12.8799 346° North  Level Estimated
Fri 07:07:32 AM 45.4283 12.8479 346° North  Level Estimated
Fri 07:08:32 AM 45.5216 12.8158 346° North  Level Estimated
Fri 07:09:32 AM 45.6149 12.7836 346° North  Level Estimated
Fri 07:10:32 AM 45.7081 12.7514 346° North  Level Estimated
Fri 07:11:32 AM 45.8014 12.7190 346° North  Level Estimated
Fri 07:12:32 AM 45.8946 12.6864 346° North  Level Estimated
Fri 07:13:32 AM 45.9879 12.6538 346° North  Level Estimated
Fri 07:14:32 AM 46.0811 12.6211 346° North  Level Estimated
Fri 07:15:32 AM 46.1743 12.5883 346° North  Level Estimated
Fri 07:16:32 AM 46.2676 12.5553 346° North  Level Estimated
Fri 07:17:32 AM 46.3608 12.5222 346° North  Level Estimated
Fri 07:18:32 AM 46.4540 12.4891 346° North  Level Estimated
Fri 07:19:32 AM 46.5472 12.4558 346° North  Level Estimated
Fri 07:20:32 AM 46.6403 12.4224 346° North  Level Estimated
Fri 07:21:32 AM 46.7335 12.3889 346° North  Level Estimated
Fri 07:22:32 AM 46.8267 12.3552 346° North  Level Estimated
Fri 07:23:32 AM 46.9198 12.3215 346° North  Level Estimated
Fri 07:24:32 AM 47.0130 12.2876 346° North  Level Estimated
Fri 07:25:32 AM 47.1061 12.2536 346° North  Level Estimated
Fri 07:26:32 AM 47.1992 12.2195 346° North  Level Estimated
Fri 07:27:32 AM 47.2923 12.1853 346° North  Level Estimated
Fri 07:28:32 AM 47.3854 12.1509 346° North  Level Estimated
Fri 07:29:32 AM 47.4785 12.1165 346° North  Level Estimated
Fri 07:30:32 AM 47.5716 12.0819 346° North  Level Estimated
Fri 07:31:32 AM 47.6647 12.0472 346° North  Level Estimated
Fri 07:32:32 AM 47.7577 12.0123 346° North  Level Estimated
Fri 07:33:32 AM 47.8508 11.9774 346° North  Level Estimated
Fri 07:34:32 AM 47.9438 11.9423 346° North  Level Estimated
Fri 07:35:32 AM 48.0368 11.9071 346° North  Level Estimated
Fri 07:36:32 AM 48.1298 11.8717 346° North  Level Estimated
Fri 07:37:32 AM 48.2228 11.8363 346° North  Level Estimated
Fri 07:38:32 AM 48.3158 11.8006 346° North  Level Estimated
Fri 07:39:32 AM 48.4088 11.7649 166° South  Level Estimated
Fri 07:40:32 AM 48.3158 11.8006 346° North  Level Estimated
Fri 07:41:32 AM 48.4088 11.7649 166° South  Level Estimated
Fri 07:42:32 AM 48.3158 11.8006 346° North  Level Estimated
Fri 07:43:32 AM 48.4088 11.7649 166° South  Level Estimated
Fri 07:44:32 AM 48.3158 11.8006 346° North  Level Estimated
Fri 07:45:32 AM 48.4088 11.7649 166° South  Level Estimated
Fri 07:46:32 AM 48.3158 11.8006 346° North  Level Estimated
Fri 07:47:32 AM 48.4088 11.7649 166° South  Level Estimated
Fri 07:48:32 AM 48.3158 11.8006 166° South  Level Estimated

Login

Don't have an account? Register now (free) for customized features, flight alerts, and more!